sensor_id;sensor_type;location;lat;lon;timestamp;temperature;humidity
35700;DHT22;21818;51.078;12.108;2023-11-18T00:00:16;10.80;87.10
35700;DHT22;21818;51.078;12.108;2023-11-18T00:02:42;10.80;87.00
35700;DHT22;21818;51.078;12.108;2023-11-18T00:05:09;10.80;87.10
35700;DHT22;21818;51.078;12.108;2023-11-18T00:07:35;10.80;87.30
35700;DHT22;21818;51.078;12.108;2023-11-18T00:10:01;10.80;87.30
35700;DHT22;21818;51.078;12.108;2023-11-18T00:12:27;10.80;87.20
35700;DHT22;21818;51.078;12.108;2023-11-18T00:14:52;10.80;87.20
35700;DHT22;21818;51.078;12.108;2023-11-18T00:17:18;10.80;87.30
35700;DHT22;21818;51.078;12.108;2023-11-18T00:19:45;10.90;87.50
35700;DHT22;21818;51.078;12.108;2023-11-18T00:22:11;10.90;87.30
35700;DHT22;21818;51.078;12.108;2023-11-18T00:24:37;10.90;87.50
35700;DHT22;21818;51.078;12.108;2023-11-18T00:27:04;10.90;87.60
35700;DHT22;21818;51.078;12.108;2023-11-18T00:29:33;10.80;87.60
35700;DHT22;21818;51.078;12.108;2023-11-18T00:31:59;10.90;87.60
35700;DHT22;21818;51.078;12.108;2023-11-18T00:34:25;10.90;87.50
35700;DHT22;21818;51.078;12.108;2023-11-18T00:36:50;10.80;87.70
35700;DHT22;21818;51.078;12.108;2023-11-18T00:39:17;10.90;87.70
35700;DHT22;21818;51.078;12.108;2023-11-18T00:41:43;10.90;87.70
35700;DHT22;21818;51.078;12.108;2023-11-18T00:44:08;10.90;87.60
35700;DHT22;21818;51.078;12.108;2023-11-18T00:46:35;10.90;87.70
35700;DHT22;21818;51.078;12.108;2023-11-18T00:49:02;10.90;87.60
35700;DHT22;21818;51.078;12.108;2023-11-18T00:51:27;10.90;87.70
35700;DHT22;21818;51.078;12.108;2023-11-18T00:53:54;10.90;87.70
35700;DHT22;21818;51.078;12.108;2023-11-18T00:56:20;10.90;87.80
35700;DHT22;21818;51.078;12.108;2023-11-18T00:58:47;10.80;88.30
35700;DHT22;21818;51.078;12.108;2023-11-18T01:01:13;10.80;88.00
35700;DHT22;21818;51.078;12.108;2023-11-18T01:03:38;10.80;88.10
35700;DHT22;21818;51.078;12.108;2023-11-18T01:06:04;10.80;88.00
35700;DHT22;21818;51.078;12.108;2023-11-18T01:08:32;10.80;87.90
35700;DHT22;21818;51.078;12.108;2023-11-18T01:10:57;10.80;88.00
35700;DHT22;21818;51.078;12.108;2023-11-18T01:13:23;10.80;87.90
35700;DHT22;21818;51.078;12.108;2023-11-18T01:15:49;10.80;87.90
35700;DHT22;21818;51.078;12.108;2023-11-18T01:18:15;10.70;87.90
35700;DHT22;21818;51.078;12.108;2023-11-18T01:20:40;10.70;88.10
35700;DHT22;21818;51.078;12.108;2023-11-18T01:23:06;10.70;88.30
35700;DHT22;21818;51.078;12.108;2023-11-18T01:25:31;10.60;88.20
35700;DHT22;21818;51.078;12.108;2023-11-18T01:27:57;10.60;88.30
35700;DHT22;21818;51.078;12.108;2023-11-18T01:30:22;10.60;88.40
35700;DHT22;21818;51.078;12.108;2023-11-18T01:32:49;10.60;88.40
35700;DHT22;21818;51.078;12.108;2023-11-18T01:35:15;10.50;88.50
35700;DHT22;21818;51.078;12.108;2023-11-18T01:37:40;10.50;88.70
35700;DHT22;21818;51.078;12.108;2023-11-18T01:40:07;10.50;88.70
35700;DHT22;21818;51.078;12.108;2023-11-18T01:42:44;10.50;88.60
35700;DHT22;21818;51.078;12.108;2023-11-18T01:45:12;10.50;88.80
35700;DHT22;21818;51.078;12.108;2023-11-18T01:47:39;10.50;88.70
35700;DHT22;21818;51.078;12.108;2023-11-18T01:50:07;10.50;88.60
35700;DHT22;21818;51.078;12.108;2023-11-18T01:52:34;10.50;88.60
35700;DHT22;21818;51.078;12.108;2023-11-18T01:55:01;10.50;88.60
35700;DHT22;21818;51.078;12.108;2023-11-18T01:57:29;10.50;88.50
35700;DHT22;21818;51.078;12.108;2023-11-18T01:59:55;10.50;88.50
35700;DHT22;21818;51.078;12.108;2023-11-18T02:02:21;10.50;88.50
35700;DHT22;21818;51.078;12.108;2023-11-18T02:04:47;10.50;88.60
35700;DHT22;21818;51.078;12.108;2023-11-18T02:07:13;10.50;88.70
35700;DHT22;21818;51.078;12.108;2023-11-18T02:09:41;10.40;88.70
35700;DHT22;21818;51.078;12.108;2023-11-18T02:12:21;10.40;88.80
35700;DHT22;21818;51.078;12.108;2023-11-18T02:14:48;10.50;88.70
35700;DHT22;21818;51.078;12.108;2023-11-18T02:17:18;10.50;88.70
35700;DHT22;21818;51.078;12.108;2023-11-18T02:19:45;10.50;88.70
35700;DHT22;21818;51.078;12.108;2023-11-18T02:22:11;10.50;88.80
35700;DHT22;21818;51.078;12.108;2023-11-18T02:24:37;10.40;88.80
35700;DHT22;21818;51.078;12.108;2023-11-18T02:27:05;10.50;89.50
35700;DHT22;21818;51.078;12.108;2023-11-18T02:29:36;10.50;89.00
35700;DHT22;21818;51.078;12.108;2023-11-18T02:37:32;10.40;89.10
35700;DHT22;21818;51.078;12.108;2023-11-18T02:40:03;10.40;89.20
35700;DHT22;21818;51.078;12.108;2023-11-18T02:42:37;10.30;89.20
35700;DHT22;21818;51.078;12.108;2023-11-18T02:45:05;10.40;89.30
35700;DHT22;21818;51.078;12.108;2023-11-18T02:47:32;10.40;89.20
35700;DHT22;21818;51.078;12.108;2023-11-18T02:49:58;10.40;89.10
35700;DHT22;21818;51.078;12.108;2023-11-18T02:52:33;10.40;89.10
35700;DHT22;21818;51.078;12.108;2023-11-18T02:54:59;10.40;89.20
35700;DHT22;21818;51.078;12.108;2023-11-18T02:57:25;10.40;89.00
35700;DHT22;21818;51.078;12.108;2023-11-18T02:59:50;10.50;89.10
35700;DHT22;21818;51.078;12.108;2023-11-18T03:02:16;10.40;89.10
35700;DHT22;21818;51.078;12.108;2023-11-18T03:04:41;10.40;89.10
35700;DHT22;21818;51.078;12.108;2023-11-18T03:07:10;10.40;89.20
35700;DHT22;21818;51.078;12.108;2023-11-18T03:09:35;10.40;89.10
35700;DHT22;21818;51.078;12.108;2023-11-18T03:12:03;10.40;89.20
35700;DHT22;21818;51.078;12.108;2023-11-18T03:14:29;10.40;89.20
35700;DHT22;21818;51.078;12.108;2023-11-18T03:16:54;10.40;89.20
35700;DHT22;21818;51.078;12.108;2023-11-18T03:19:21;10.40;89.20
35700;DHT22;21818;51.078;12.108;2023-11-18T03:21:55;10.40;89.20
35700;DHT22;21818;51.078;12.108;2023-11-18T03:24:21;10.30;89.20
35700;DHT22;21818;51.078;12.108;2023-11-18T03:26:47;10.40;89.10
35700;DHT22;21818;51.078;12.108;2023-11-18T03:29:13;10.40;89.10
35700;DHT22;21818;51.078;12.108;2023-11-18T03:31:39;10.40;89.10
35700;DHT22;21818;51.078;12.108;2023-11-18T03:34:04;10.40;89.10
35700;DHT22;21818;51.078;12.108;2023-11-18T03:36:30;10.50;89.10
35700;DHT22;21818;51.078;12.108;2023-11-18T03:38:55;10.40;89.00
35700;DHT22;21818;51.078;12.108;2023-11-18T03:41:21;10.40;89.10
35700;DHT22;21818;51.078;12.108;2023-11-18T03:43:49;10.40;89.60
35700;DHT22;21818;51.078;12.108;2023-11-18T03:46:14;10.50;89.10
35700;DHT22;21818;51.078;12.108;2023-11-18T03:48:41;10.50;89.10
35700;DHT22;21818;51.078;12.108;2023-11-18T03:51:09;10.50;89.10
35700;DHT22;21818;51.078;12.108;2023-11-18T03:53:35;10.50;89.10
35700;DHT22;21818;51.078;12.108;2023-11-18T03:56:01;10.50;89.00
35700;DHT22;21818;51.078;12.108;2023-11-18T03:58:28;10.40;89.10
35700;DHT22;21818;51.078;12.108;2023-11-18T04:00:53;10.40;89.20
35700;DHT22;21818;51.078;12.108;2023-11-18T04:03:19;10.40;89.30
35700;DHT22;21818;51.078;12.108;2023-11-18T04:05:45;10.40;89.30
35700;DHT22;21818;51.078;12.108;2023-11-18T04:08:10;10.40;89.40
35700;DHT22;21818;51.078;12.108;2023-11-18T04:10:37;10.40;89.50
35700;DHT22;21818;51.078;12.108;2023-11-18T04:13:02;10.40;89.50
35700;DHT22;21818;51.078;12.108;2023-11-18T04:15:28;10.40;89.50
35700;DHT22;21818;51.078;12.108;2023-11-18T04:17:53;10.40;89.40
35700;DHT22;21818;51.078;12.108;2023-11-18T04:20:19;10.40;89.30
35700;DHT22;21818;51.078;12.108;2023-11-18T04:22:45;10.40;89.40
35700;DHT22;21818;51.078;12.108;2023-11-18T04:25:11;10.40;89.40
35700;DHT22;21818;51.078;12.108;2023-11-18T04:27:37;10.40;89.40
35700;DHT22;21818;51.078;12.108;2023-11-18T04:30:04;10.40;89.40
35700;DHT22;21818;51.078;12.108;2023-11-18T04:32:30;10.40;89.40
35700;DHT22;21818;51.078;12.108;2023-11-18T04:34:58;10.40;89.40
35700;DHT22;21818;51.078;12.108;2023-11-18T04:37:25;10.50;89.40
35700;DHT22;21818;51.078;12.108;2023-11-18T04:39:50;10.50;89.30
35700;DHT22;21818;51.078;12.108;2023-11-18T04:42:16;10.40;89.30
35700;DHT22;21818;51.078;12.108;2023-11-18T04:44:42;10.50;89.50
35700;DHT22;21818;51.078;12.108;2023-11-18T04:47:07;10.40;89.50
35700;DHT22;21818;51.078;12.108;2023-11-18T04:49:33;10.40;89.40
35700;DHT22;21818;51.078;12.108;2023-11-18T04:51:58;10.40;89.50
35700;DHT22;21818;51.078;12.108;2023-11-18T04:54:24;10.40;89.40
35700;DHT22;21818;51.078;12.108;2023-11-18T04:56:50;10.40;89.40
35700;DHT22;21818;51.078;12.108;2023-11-18T04:59:15;10.40;89.50
35700;DHT22;21818;51.078;12.108;2023-11-18T05:01:43;10.40;89.50
35700;DHT22;21818;51.078;12.108;2023-11-18T05:04:09;10.30;89.40
35700;DHT22;21818;51.078;12.108;2023-11-18T05:06:34;10.30;89.40
35700;DHT22;21818;51.078;12.108;2023-11-18T05:09:00;10.40;89.40
35700;DHT22;21818;51.078;12.108;2023-11-18T05:11:26;10.50;89.70
35700;DHT22;21818;51.078;12.108;2023-11-18T05:13:51;10.50;89.70
35700;DHT22;21818;51.078;12.108;2023-11-18T05:16:17;10.50;89.90
35700;DHT22;21818;51.078;12.108;2023-11-18T05:18:43;10.50;89.90
35700;DHT22;21818;51.078;12.108;2023-11-18T05:21:08;10.50;89.90
35700;DHT22;21818;51.078;12.108;2023-11-18T05:23:34;10.50;90.00
35700;DHT22;21818;51.078;12.108;2023-11-18T05:26:03;10.50;90.00
35700;DHT22;21818;51.078;12.108;2023-11-18T05:28:31;10.40;89.90
35700;DHT22;21818;51.078;12.108;2023-11-18T05:30:57;10.40;90.00
35700;DHT22;21818;51.078;12.108;2023-11-18T05:33:27;10.40;90.00
35700;DHT22;21818;51.078;12.108;2023-11-18T05:35:54;10.40;90.00
35700;DHT22;21818;51.078;12.108;2023-11-18T05:38:20;10.40;90.00
35700;DHT22;21818;51.078;12.108;2023-11-18T05:40:50;10.40;90.00
35700;DHT22;21818;51.078;12.108;2023-11-18T05:43:26;10.40;90.00
35700;DHT22;21818;51.078;12.108;2023-11-18T05:45:55;10.40;89.90
35700;DHT22;21818;51.078;12.108;2023-11-18T05:48:37;10.40;90.00
35700;DHT22;21818;51.078;12.108;2023-11-18T05:51:04;10.40;89.90
35700;DHT22;21818;51.078;12.108;2023-11-18T05:53:30;10.40;90.00
35700;DHT22;21818;51.078;12.108;2023-11-18T05:55:56;10.40;89.90
35700;DHT22;21818;51.078;12.108;2023-11-18T05:58:22;10.50;89.90
35700;DHT22;21818;51.078;12.108;2023-11-18T06:00:47;10.40;89.90
35700;DHT22;21818;51.078;12.108;2023-11-18T06:03:13;10.40;90.00
35700;DHT22;21818;51.078;12.108;2023-11-18T06:05:39;10.40;90.00
35700;DHT22;21818;51.078;12.108;2023-11-18T06:08:05;10.30;90.10
35700;DHT22;21818;51.078;12.108;2023-11-18T06:10:30;10.40;90.00
35700;DHT22;21818;51.078;12.108;2023-11-18T06:12:59;10.30;90.00
35700;DHT22;21818;51.078;12.108;2023-11-18T06:15:25;10.30;90.10
35700;DHT22;21818;51.078;12.108;2023-11-18T06:17:53;10.30;90.10
35700;DHT22;21818;51.078;12.108;2023-11-18T06:20:20;10.30;90.20
35700;DHT22;21818;51.078;12.108;2023-11-18T06:22:48;10.20;90.20
35700;DHT22;21818;51.078;12.108;2023-11-18T06:25:13;10.20;90.20
35700;DHT22;21818;51.078;12.108;2023-11-18T06:27:39;10.20;90.20
35700;DHT22;21818;51.078;12.108;2023-11-18T06:30:05;10.20;90.20
35700;DHT22;21818;51.078;12.108;2023-11-18T06:32:32;10.20;90.20
35700;DHT22;21818;51.078;12.108;2023-11-18T06:34:57;10.20;90.20
35700;DHT22;21818;51.078;12.108;2023-11-18T06:37:23;10.30;90.10
35700;DHT22;21818;51.078;12.108;2023-11-18T06:39:49;10.30;90.00
35700;DHT22;21818;51.078;12.108;2023-11-18T06:42:15;10.20;90.10
35700;DHT22;21818;51.078;12.108;2023-11-18T06:44:41;10.20;90.20
35700;DHT22;21818;51.078;12.108;2023-11-18T06:47:06;10.20;90.20
35700;DHT22;21818;51.078;12.108;2023-11-18T06:49:32;10.20;90.20
35700;DHT22;21818;51.078;12.108;2023-11-18T06:52:02;10.20;90.20
35700;DHT22;21818;51.078;12.108;2023-11-18T06:54:29;10.20;90.20
35700;DHT22;21818;51.078;12.108;2023-11-18T06:56:55;10.20;90.00
35700;DHT22;21818;51.078;12.108;2023-11-18T06:59:21;10.30;90.10
35700;DHT22;21818;51.078;12.108;2023-11-18T07:01:47;10.30;90.10
35700;DHT22;21818;51.078;12.108;2023-11-18T07:04:13;10.30;90.00
35700;DHT22;21818;51.078;12.108;2023-11-18T07:06:39;10.30;90.10
35700;DHT22;21818;51.078;12.108;2023-11-18T07:09:06;10.30;90.10
35700;DHT22;21818;51.078;12.108;2023-11-18T07:11:39;10.20;90.10
35700;DHT22;21818;51.078;12.108;2023-11-18T07:14:06;10.20;90.10
35700;DHT22;21818;51.078;12.108;2023-11-18T07:16:34;10.30;90.10
35700;DHT22;21818;51.078;12.108;2023-11-18T07:19:00;10.30;90.10
35700;DHT22;21818;51.078;12.108;2023-11-18T07:21:29;10.60;90.00
35700;DHT22;21818;51.078;12.108;2023-11-18T07:23:54;10.90;89.70
35700;DHT22;21818;51.078;12.108;2023-11-18T07:26:20;11.20;89.30
35700;DHT22;21818;51.078;12.108;2023-11-18T07:28:45;11.40;88.90
35700;DHT22;21818;51.078;12.108;2023-11-18T07:31:12;11.50;88.80
35700;DHT22;21818;51.078;12.108;2023-11-18T07:33:37;11.60;88.80
35700;DHT22;21818;51.078;12.108;2023-11-18T07:36:03;11.60;88.70
35700;DHT22;21818;51.078;12.108;2023-11-18T07:38:31;11.70;88.70
35700;DHT22;21818;51.078;12.108;2023-11-18T07:40:58;11.70;88.70
35700;DHT22;21818;51.078;12.108;2023-11-18T07:43:25;11.70;88.70
35700;DHT22;21818;51.078;12.108;2023-11-18T07:45:52;11.70;88.70
35700;DHT22;21818;51.078;12.108;2023-11-18T07:48:19;11.80;88.60
35700;DHT22;21818;51.078;12.108;2023-11-18T07:50:46;11.80;88.50
35700;DHT22;21818;51.078;12.108;2023-11-18T07:53:15;11.90;88.50
35700;DHT22;21818;51.078;12.108;2023-11-18T07:55:41;11.90;88.50
35700;DHT22;21818;51.078;12.108;2023-11-18T07:58:11;12.00;88.40
35700;DHT22;21818;51.078;12.108;2023-11-18T08:00:41;12.00;88.30
35700;DHT22;21818;51.078;12.108;2023-11-18T08:03:08;12.10;88.00
35700;DHT22;21818;51.078;12.108;2023-11-18T08:05:44;12.30;87.90
35700;DHT22;21818;51.078;12.108;2023-11-18T08:08:14;12.30;87.70
35700;DHT22;21818;51.078;12.108;2023-11-18T08:10:43;12.40;87.50
35700;DHT22;21818;51.078;12.108;2023-11-18T08:13:10;12.50;87.40
35700;DHT22;21818;51.078;12.108;2023-11-18T08:15:41;12.50;87.20
35700;DHT22;21818;51.078;12.108;2023-11-18T08:18:07;12.60;87.10
35700;DHT22;21818;51.078;12.108;2023-11-18T08:20:33;12.60;87.00
35700;DHT22;21818;51.078;12.108;2023-11-18T08:22:59;12.60;87.00
35700;DHT22;21818;51.078;12.108;2023-11-18T08:25:25;12.70;86.90
35700;DHT22;21818;51.078;12.108;2023-11-18T08:27:51;12.70;86.80
35700;DHT22;21818;51.078;12.108;2023-11-18T08:30:17;12.70;86.70
35700;DHT22;21818;51.078;12.108;2023-11-18T08:32:45;12.70;86.60
35700;DHT22;21818;51.078;12.108;2023-11-18T08:35:12;12.70;86.60
35700;DHT22;21818;51.078;12.108;2023-11-18T08:37:42;12.70;86.50
35700;DHT22;21818;51.078;12.108;2023-11-18T08:40:13;12.70;86.60
35700;DHT22;21818;51.078;12.108;2023-11-18T08:42:51;12.60;86.70
35700;DHT22;21818;51.078;12.108;2023-11-18T08:45:21;12.60;87.20
35700;DHT22;21818;51.078;12.108;2023-11-18T08:47:48;12.60;86.70
35700;DHT22;21818;51.078;12.108;2023-11-18T08:50:15;12.60;86.80
35700;DHT22;21818;51.078;12.108;2023-11-18T08:52:45;12.60;86.80
35700;DHT22;21818;51.078;12.108;2023-11-18T08:55:16;12.60;86.80
35700;DHT22;21818;51.078;12.108;2023-11-18T08:57:49;12.60;86.80
35700;DHT22;21818;51.078;12.108;2023-11-18T09:00:25;12.60;86.80
35700;DHT22;21818;51.078;12.108;2023-11-18T09:03:09;12.70;86.80
35700;DHT22;21818;51.078;12.108;2023-11-18T09:05:46;12.60;86.70
35700;DHT22;21818;51.078;12.108;2023-11-18T09:08:29;12.70;86.70
35700;DHT22;21818;51.078;12.108;2023-11-18T09:10:58;12.70;86.60
35700;DHT22;21818;51.078;12.108;2023-11-18T09:13:25;12.70;86.60
35700;DHT22;21818;51.078;12.108;2023-11-18T09:16:01;12.70;86.50
35700;DHT22;21818;51.078;12.108;2023-11-18T09:18:29;12.70;86.60
35700;DHT22;21818;51.078;12.108;2023-11-18T09:20:56;12.70;86.50
35700;DHT22;21818;51.078;12.108;2023-11-18T09:23:25;12.70;86.50
35700;DHT22;21818;51.078;12.108;2023-11-18T09:25:51;12.80;86.50
35700;DHT22;21818;51.078;12.108;2023-11-18T09:28:19;12.80;86.40
35700;DHT22;21818;51.078;12.108;2023-11-18T09:30:48;12.80;86.40
35700;DHT22;21818;51.078;12.108;2023-11-18T09:33:22;12.80;86.20
35700;DHT22;21818;51.078;12.108;2023-11-18T09:35:55;12.80;86.20
35700;DHT22;21818;51.078;12.108;2023-11-18T09:38:31;12.80;86.20
35700;DHT22;21818;51.078;12.108;2023-11-18T09:40:58;12.80;86.20
35700;DHT22;21818;51.078;12.108;2023-11-18T09:43:36;12.80;86.20
35700;DHT22;21818;51.078;12.108;2023-11-18T09:48:48;12.80;86.10
35700;DHT22;21818;51.078;12.108;2023-11-18T09:51:26;12.80;86.00
35700;DHT22;21818;51.078;12.108;2023-11-18T09:54:05;12.80;86.00
35700;DHT22;21818;51.078;12.108;2023-11-18T09:59:13;12.90;85.80
35700;DHT22;21818;51.078;12.108;2023-11-18T10:01:43;12.90;85.70
35700;DHT22;21818;51.078;12.108;2023-11-18T10:04:13;13.00;85.60
35700;DHT22;21818;51.078;12.108;2023-11-18T10:06:43;13.00;85.40
35700;DHT22;21818;51.078;12.108;2023-11-18T10:09:10;13.10;85.20
35700;DHT22;21818;51.078;12.108;2023-11-18T10:11:44;13.20;85.00
35700;DHT22;21818;51.078;12.108;2023-11-18T10:14:14;13.20;84.90
35700;DHT22;21818;51.078;12.108;2023-11-18T10:16:41;13.20;84.80
35700;DHT22;21818;51.078;12.108;2023-11-18T10:19:07;13.30;84.80
35700;DHT22;21818;51.078;12.108;2023-11-18T10:21:37;13.30;84.60
35700;DHT22;21818;51.078;12.108;2023-11-18T10:24:07;13.30;84.60
35700;DHT22;21818;51.078;12.108;2023-11-18T10:26:46;13.30;84.50
35700;DHT22;21818;51.078;12.108;2023-11-18T10:29:19;13.40;84.40
35700;DHT22;21818;51.078;12.108;2023-11-18T10:31:45;13.40;84.40
35700;DHT22;21818;51.078;12.108;2023-11-18T10:34:14;13.30;84.30
35700;DHT22;21818;51.078;12.108;2023-11-18T10:36:59;13.30;84.40
35700;DHT22;21818;51.078;12.108;2023-11-18T10:39:32;13.20;84.40
35700;DHT22;21818;51.078;12.108;2023-11-18T10:42:01;13.20;84.60
35700;DHT22;21818;51.078;12.108;2023-11-18T10:44:27;13.20;84.70
35700;DHT22;21818;51.078;12.108;2023-11-18T10:46:54;13.20;84.90
35700;DHT22;21818;51.078;12.108;2023-11-18T10:49:22;13.20;85.00
35700;DHT22;21818;51.078;12.108;2023-11-18T10:51:50;13.20;84.90
35700;DHT22;21818;51.078;12.108;2023-11-18T10:54:16;13.20;84.90
35700;DHT22;21818;51.078;12.108;2023-11-18T10:56:51;13.20;84.90
35700;DHT22;21818;51.078;12.108;2023-11-18T10:59:22;13.20;84.80
35700;DHT22;21818;51.078;12.108;2023-11-18T11:01:48;13.30;84.80
35700;DHT22;21818;51.078;12.108;2023-11-18T11:04:15;13.30;84.60
35700;DHT22;21818;51.078;12.108;2023-11-18T11:06:48;13.40;84.60
35700;DHT22;21818;51.078;12.108;2023-11-18T11:09:23;13.40;84.40
35700;DHT22;21818;51.078;12.108;2023-11-18T11:12:10;13.40;84.40
35700;DHT22;21818;51.078;12.108;2023-11-18T11:14:46;13.50;84.20
35700;DHT22;21818;51.078;12.108;2023-11-18T11:17:17;13.50;84.10
35700;DHT22;21818;51.078;12.108;2023-11-18T11:19:59;13.60;84.20
35700;DHT22;21818;51.078;12.108;2023-11-18T11:22:53;13.60;84.10
35700;DHT22;21818;51.078;12.108;2023-11-18T11:28:22;13.60;83.90
35700;DHT22;21818;51.078;12.108;2023-11-18T11:33:40;13.70;83.80
35700;DHT22;21818;51.078;12.108;2023-11-18T11:36:21;13.70;83.80
35700;DHT22;21818;51.078;12.108;2023-11-18T11:38:52;13.80;83.70
35700;DHT22;21818;51.078;12.108;2023-11-18T11:41:18;13.90;83.60
35700;DHT22;21818;51.078;12.108;2023-11-18T11:43:52;13.90;83.30
35700;DHT22;21818;51.078;12.108;2023-11-18T11:46:21;14.00;83.20
35700;DHT22;21818;51.078;12.108;2023-11-18T11:48:49;14.00;83.00
35700;DHT22;21818;51.078;12.108;2023-11-18T11:51:28;14.10;82.90
35700;DHT22;21818;51.078;12.108;2023-11-18T11:54:06;14.10;82.70
35700;DHT22;21818;51.078;12.108;2023-11-18T11:56:50;14.10;82.70
35700;DHT22;21818;51.078;12.108;2023-11-18T11:59:54;14.10;82.70
35700;DHT22;21818;51.078;12.108;2023-11-18T12:02:22;14.20;82.90
35700;DHT22;21818;51.078;12.108;2023-11-18T12:04:55;14.30;82.40
35700;DHT22;21818;51.078;12.108;2023-11-18T12:07:25;14.40;82.20
35700;DHT22;21818;51.078;12.108;2023-11-18T12:09:59;14.40;81.90
35700;DHT22;21818;51.078;12.108;2023-11-18T12:12:27;14.50;81.60
35700;DHT22;21818;51.078;12.108;2023-11-18T12:14:59;14.60;81.50
35700;DHT22;21818;51.078;12.108;2023-11-18T12:20:42;14.80;80.90
35700;DHT22;21818;51.078;12.108;2023-11-18T12:23:15;14.90;80.60
35700;DHT22;21818;51.078;12.108;2023-11-18T12:25:44;15.00;80.60
35700;DHT22;21818;51.078;12.108;2023-11-18T12:28:17;15.10;80.30
35700;DHT22;21818;51.078;12.108;2023-11-18T12:30:47;15.20;80.20
35700;DHT22;21818;51.078;12.108;2023-11-18T12:33:22;15.30;79.90
35700;DHT22;21818;51.078;12.108;2023-11-18T12:36:18;15.40;79.70
35700;DHT22;21818;51.078;12.108;2023-11-18T12:42:03;15.60;79.20
35700;DHT22;21818;51.078;12.108;2023-11-18T12:44:39;15.70;79.20
35700;DHT22;21818;51.078;12.108;2023-11-18T12:47:14;15.80;79.00
35700;DHT22;21818;51.078;12.108;2023-11-18T12:49:45;15.80;78.90
35700;DHT22;21818;51.078;12.108;2023-11-18T12:52:16;15.70;79.00
35700;DHT22;21818;51.078;12.108;2023-11-18T12:54:44;15.70;79.20
35700;DHT22;21818;51.078;12.108;2023-11-18T12:57:22;15.60;79.20
35700;DHT22;21818;51.078;12.108;2023-11-18T12:59:51;15.60;79.20
35700;DHT22;21818;51.078;12.108;2023-11-18T13:02:17;15.60;79.30
35700;DHT22;21818;51.078;12.108;2023-11-18T13:04:46;15.50;79.40
35700;DHT22;21818;51.078;12.108;2023-11-18T13:07:16;15.40;79.50
35700;DHT22;21818;51.078;12.108;2023-11-18T13:09:43;15.50;79.50
35700;DHT22;21818;51.078;12.108;2023-11-18T13:12:11;15.50;79.40
35700;DHT22;21818;51.078;12.108;2023-11-18T13:14:40;15.40;79.30
35700;DHT22;21818;51.078;12.108;2023-11-18T13:17:11;15.40;79.40
35700;DHT22;21818;51.078;12.108;2023-11-18T13:19:38;15.30;79.40
35700;DHT22;21818;51.078;12.108;2023-11-18T13:22:06;15.30;79.40
35700;DHT22;21818;51.078;12.108;2023-11-18T13:24:37;15.20;79.50
35700;DHT22;21818;51.078;12.108;2023-11-18T13:27:05;15.20;79.50
35700;DHT22;21818;51.078;12.108;2023-11-18T13:29:32;15.10;79.60
35700;DHT22;21818;51.078;12.108;2023-11-18T13:32:00;15.10;79.70
35700;DHT22;21818;51.078;12.108;2023-11-18T13:34:32;15.10;79.70
35700;DHT22;21818;51.078;12.108;2023-11-18T13:37:01;15.00;79.70
35700;DHT22;21818;51.078;12.108;2023-11-18T13:39:27;15.00;79.70
35700;DHT22;21818;51.078;12.108;2023-11-18T13:41:53;15.00;79.70
35700;DHT22;21818;51.078;12.108;2023-11-18T13:44:51;14.90;79.70
35700;DHT22;21818;51.078;12.108;2023-11-18T13:47:18;14.90;80.10
35700;DHT22;21818;51.078;12.108;2023-11-18T13:49:44;14.80;79.90
35700;DHT22;21818;51.078;12.108;2023-11-18T13:52:13;14.80;80.00
35700;DHT22;21818;51.078;12.108;2023-11-18T13:54:41;14.80;80.10
35700;DHT22;21818;51.078;12.108;2023-11-18T13:57:10;14.70;80.00
35700;DHT22;21818;51.078;12.108;2023-11-18T13:59:37;14.70;80.00
35700;DHT22;21818;51.078;12.108;2023-11-18T14:02:04;14.70;80.10
35700;DHT22;21818;51.078;12.108;2023-11-18T14:04:32;14.70;80.10
35700;DHT22;21818;51.078;12.108;2023-11-18T14:07:00;14.60;80.10
35700;DHT22;21818;51.078;12.108;2023-11-18T14:09:29;14.60;80.20
35700;DHT22;21818;51.078;12.108;2023-11-18T14:11:55;14.60;80.30
35700;DHT22;21818;51.078;12.108;2023-11-18T14:14:22;14.60;80.30
35700;DHT22;21818;51.078;12.108;2023-11-18T14:16:48;14.60;80.30
35700;DHT22;21818;51.078;12.108;2023-11-18T14:19:15;14.60;80.40
35700;DHT22;21818;51.078;12.108;2023-11-18T14:21:41;14.50;80.40
35700;DHT22;21818;51.078;12.108;2023-11-18T14:24:10;14.50;80.40
35700;DHT22;21818;51.078;12.108;2023-11-18T14:26:37;14.50;80.50
35700;DHT22;21818;51.078;12.108;2023-11-18T14:29:06;14.50;80.60
35700;DHT22;21818;51.078;12.108;2023-11-18T14:31:33;14.50;80.60
35700;DHT22;21818;51.078;12.108;2023-11-18T14:33:59;14.50;80.70
35700;DHT22;21818;51.078;12.108;2023-11-18T14:36:28;14.40;80.60
35700;DHT22;21818;51.078;12.108;2023-11-18T14:38:54;14.50;80.80
35700;DHT22;21818;51.078;12.108;2023-11-18T14:41:20;14.40;80.80
35700;DHT22;21818;51.078;12.108;2023-11-18T14:43:50;14.40;80.80
35700;DHT22;21818;51.078;12.108;2023-11-18T14:46:16;14.40;80.80
35700;DHT22;21818;51.078;12.108;2023-11-18T14:48:41;14.30;80.80
35700;DHT22;21818;51.078;12.108;2023-11-18T14:51:08;14.30;80.90
35700;DHT22;21818;51.078;12.108;2023-11-18T14:53:33;14.30;80.90
35700;DHT22;21818;51.078;12.108;2023-11-18T14:56:03;14.20;80.90
35700;DHT22;21818;51.078;12.108;2023-11-18T14:58:31;14.20;81.00
35700;DHT22;21818;51.078;12.108;2023-11-18T15:00:58;14.20;81.00
35700;DHT22;21818;51.078;12.108;2023-11-18T15:03:24;14.20;81.00
35700;DHT22;21818;51.078;12.108;2023-11-18T15:05:50;14.20;81.10
35700;DHT22;21818;51.078;12.108;2023-11-18T15:08:16;14.20;81.20
35700;DHT22;21818;51.078;12.108;2023-11-18T15:10:42;14.20;81.20
35700;DHT22;21818;51.078;12.108;2023-11-18T15:13:08;14.10;81.00
35700;DHT22;21818;51.078;12.108;2023-11-18T15:15:41;14.10;81.00
35700;DHT22;21818;51.078;12.108;2023-11-18T15:18:07;14.10;81.00
35700;DHT22;21818;51.078;12.108;2023-11-18T15:20:40;14.10;80.90
35700;DHT22;21818;51.078;12.108;2023-11-18T15:23:09;14.10;80.90
35700;DHT22;21818;51.078;12.108;2023-11-18T15:25:34;14.00;80.80
35700;DHT22;21818;51.078;12.108;2023-11-18T15:28:00;14.00;80.70
35700;DHT22;21818;51.078;12.108;2023-11-18T15:30:26;14.00;80.70
35700;DHT22;21818;51.078;12.108;2023-11-18T15:32:53;14.00;80.70
35700;DHT22;21818;51.078;12.108;2023-11-18T15:35:19;14.00;80.70
35700;DHT22;21818;51.078;12.108;2023-11-18T15:37:46;13.90;80.60
35700;DHT22;21818;51.078;12.108;2023-11-18T15:40:14;13.90;80.60
35700;DHT22;21818;51.078;12.108;2023-11-18T15:42:45;13.90;80.60
35700;DHT22;21818;51.078;12.108;2023-11-18T15:45:23;13.90;80.80